createdAt,value
2023-02-17T00:01:27.911Z,4.1
2023-02-17T00:03:54.623Z,4
2023-02-17T00:06:21.329Z,3.5
2023-02-17T00:11:14.656Z,3.6
2023-02-17T00:13:41.352Z,4
2023-02-17T00:16:08.021Z,3.6
2023-02-17T00:18:33.363Z,3.7
2023-02-17T00:20:59.959Z,4.3
2023-02-17T00:23:26.666Z,4.3
2023-02-17T00:28:18.560Z,3.8
2023-02-17T00:30:45.275Z,3.8
2023-02-17T00:33:11.922Z,3.8
2023-02-17T00:35:38.638Z,4.1
2023-02-17T00:38:05.299Z,3.7
2023-02-17T00:40:31.982Z,3.3
2023-02-17T00:42:58.716Z,3.6
2023-02-17T00:45:25.360Z,3.9
2023-02-17T00:47:52.043Z,3.2
2023-02-17T00:50:18.721Z,3.6
2023-02-17T00:52:45.446Z,3.4
2023-02-17T00:55:12.081Z,3.7
2023-02-17T01:00:04.006Z,3.2
2023-02-17T01:02:29.294Z,3
2023-02-17T01:04:54.480Z,3.4
2023-02-17T01:09:47.839Z,3.3
2023-02-17T01:17:07.890Z,3.1
2023-02-17T01:19:34.596Z,2.9
2023-02-17T01:22:01.284Z,3.1
2023-02-17T01:24:27.944Z,3.5
2023-02-17T01:26:54.633Z,2.8
2023-02-17T01:29:21.383Z,3.2
2023-02-17T01:31:48.016Z,3.3
2023-02-17T01:34:14.706Z,3.2
2023-02-17T01:41:33.335Z,3.5
2023-02-17T01:43:59.960Z,2.8
2023-02-17T01:46:26.636Z,3.1
2023-02-17T01:48:53.318Z,2.8
2023-02-17T01:51:20.050Z,3.2
2023-02-17T01:53:46.725Z,2.9
2023-02-17T01:56:13.392Z,3.7
2023-02-17T01:58:40.105Z,3.1
2023-02-17T02:01:06.754Z,3.5
2023-02-17T02:03:33.452Z,3.5
2023-02-17T02:06:00.125Z,3.2
2023-02-17T02:08:26.824Z,3.3
2023-02-17T02:10:53.497Z,2.8
2023-02-17T02:13:18.726Z,3
2023-02-17T02:15:45.437Z,2.9
2023-02-17T02:18:12.116Z,2.5
2023-02-17T02:23:05.460Z,3.3
2023-02-17T02:25:32.152Z,3
2023-02-17T02:27:58.850Z,2.8
2023-02-17T02:30:25.533Z,3
2023-02-17T02:32:50.758Z,2.9
2023-02-17T02:35:16.000Z,2.8
2023-02-17T02:37:42.673Z,3.3
2023-02-17T02:40:09.398Z,3.3
2023-02-17T02:42:36.106Z,2.7
2023-02-17T02:45:02.726Z,3
2023-02-17T02:47:29.422Z,3
2023-02-17T02:52:22.821Z,3.1
2023-02-17T02:57:16.154Z,3
2023-02-17T02:59:42.839Z,2.8
2023-02-17T03:02:09.520Z,2.8
2023-02-17T03:04:34.799Z,2.9
2023-02-17T03:06:59.999Z,3
2023-02-17T03:09:26.681Z,3.2
2023-02-17T03:11:53.366Z,3.2
2023-02-17T03:14:20.054Z,3
2023-02-17T03:16:46.732Z,3
2023-02-17T03:21:40.163Z,2.7
2023-02-17T03:24:06.804Z,3.1
2023-02-17T03:26:33.473Z,3.3
2023-02-17T03:29:00.160Z,2.8
2023-02-17T03:31:26.848Z,2.6
2023-02-17T03:33:53.542Z,2.6
2023-02-17T03:36:20.209Z,3.3
2023-02-17T03:41:13.602Z,3.2
2023-02-17T03:43:40.271Z,3.1
2023-02-17T03:46:05.492Z,3.5
2023-02-17T03:50:58.863Z,2.8
2023-02-17T03:53:25.562Z,3.5
2023-02-17T03:55:52.246Z,3.5
2023-02-17T03:58:18.936Z,3.8
2023-02-17T04:00:45.612Z,3.1
2023-02-17T04:03:12.284Z,3.5
2023-02-17T04:05:39.009Z,3.2
2023-02-17T04:08:05.659Z,2.8
2023-02-17T04:10:32.351Z,2.8
2023-02-17T04:12:59.016Z,3
2023-02-17T04:15:25.707Z,3
2023-02-17T04:17:50.936Z,3.1
2023-02-17T04:20:17.623Z,2.9
2023-02-17T04:22:44.299Z,3.5
2023-02-17T04:25:10.989Z,2.5
2023-02-17T04:27:37.665Z,3
2023-02-17T04:30:04.358Z,3.1
2023-02-17T04:32:29.603Z,3.1
2023-02-17T04:34:54.836Z,2.9
2023-02-17T04:37:21.519Z,3.3
2023-02-17T04:39:48.224Z,3.1
2023-02-17T04:42:14.924Z,3.3
2023-02-17T04:44:41.570Z,2.8
2023-02-17T04:47:08.269Z,3.5
2023-02-17T04:49:34.940Z,3.3
2023-02-17T04:52:01.620Z,3.5
2023-02-17T04:54:28.308Z,3
2023-02-17T04:56:54.986Z,3
2023-02-17T04:59:20.262Z,2.8
2023-02-17T05:04:12.200Z,3.3
2023-02-17T05:06:38.836Z,2.7
2023-02-17T05:09:05.531Z,2.9
2023-02-17T05:11:32.206Z,3.1
2023-02-17T05:13:58.893Z,2.8
2023-02-17T05:18:52.284Z,3.1
2023-02-17T05:21:18.937Z,3.1
2023-02-17T05:23:45.650Z,3
2023-02-17T05:26:12.413Z,3.4
2023-02-17T05:28:38.987Z,3.4
2023-02-17T05:31:05.681Z,3.1
2023-02-17T05:33:30.937Z,3.9
2023-02-17T05:35:57.571Z,3.3
2023-02-17T05:38:24.269Z,3.1
2023-02-17T05:40:50.953Z,3.3
2023-02-17T05:48:11.050Z,3.6
2023-02-17T05:50:36.281Z,3.1
2023-02-17T05:53:02.946Z,3.1
2023-02-17T05:55:28.168Z,3.7
2023-02-17T05:57:54.854Z,3.2
2023-02-17T06:00:21.545Z,3.4
2023-02-17T06:02:48.254Z,3.6
2023-02-17T06:05:14.912Z,3.8
2023-02-17T06:07:41.654Z,3.5
2023-02-17T06:10:08.275Z,4.1
2023-02-17T06:12:34.962Z,3.5
2023-02-17T06:17:28.338Z,3.7
2023-02-17T06:19:55.029Z,3.7
2023-02-17T06:22:21.835Z,3.3
2023-02-17T06:24:48.391Z,3.8
2023-02-17T06:27:13.697Z,4.5
2023-02-17T06:29:40.362Z,3.6
2023-02-17T06:32:07.034Z,4
2023-02-17T06:34:33.660Z,3.8
2023-02-17T06:37:00.353Z,4.1
2023-02-17T06:39:27.042Z,4
2023-02-17T06:41:53.763Z,3.5
2023-02-17T06:44:19.038Z,3.6
2023-02-17T06:46:44.185Z,3.4
2023-02-17T06:49:10.871Z,2.9
2023-02-17T06:51:37.615Z,3
2023-02-17T06:54:04.242Z,3.1
2023-02-17T06:56:30.921Z,2.9
2023-02-17T06:58:57.621Z,3.2
2023-02-17T07:01:24.367Z,3.2
2023-02-17T07:03:50.986Z,3.3
2023-02-17T07:06:17.689Z,3
2023-02-17T07:08:44.354Z,2.9
2023-02-17T07:11:11.066Z,2.9
2023-02-17T07:16:04.423Z,3.3
2023-02-17T07:18:29.740Z,3.7
2023-02-17T07:20:56.390Z,4.5
2023-02-17T07:23:23.209Z,4
2023-02-17T07:25:49.700Z,4.6
2023-02-17T07:30:43.177Z,3.5
2023-02-17T07:33:08.348Z,2.9
2023-02-17T07:35:35.027Z,3.5
2023-02-17T07:38:00.232Z,2.8
2023-02-17T07:40:26.911Z,3
2023-02-17T07:45:20.278Z,2.9
2023-02-17T07:47:46.955Z,2.8
2023-02-17T07:50:13.683Z,2.6
2023-02-17T07:52:40.449Z,3.1
2023-02-17T07:55:07.149Z,2.7
2023-02-17T07:57:33.829Z,3
2023-02-17T08:00:00.460Z,2.6
2023-02-17T08:02:25.766Z,2.5
2023-02-17T08:04:52.400Z,2.5
2023-02-17T08:07:19.097Z,2.8
2023-02-17T08:09:45.677Z,3.2
2023-02-17T08:12:12.516Z,2.5
2023-02-17T08:14:39.139Z,2.7
2023-02-17T08:19:32.527Z,2.8
2023-02-17T08:21:59.174Z,2.6
2023-02-17T08:24:24.492Z,2.5
2023-02-17T08:26:49.566Z,2.6
2023-02-17T08:29:16.258Z,2.4
2023-02-17T08:31:42.947Z,2.8
2023-02-17T08:34:09.685Z,2.9
2023-02-17T08:36:36.326Z,2.3
2023-02-17T08:39:03.024Z,2.7
2023-02-17T08:41:29.697Z,3.4
2023-02-17T08:43:56.366Z,2.3
2023-02-17T08:46:23.052Z,2.6
2023-02-17T08:48:49.814Z,2.2
2023-02-17T08:51:15.044Z,2.3
2023-02-17T08:53:40.275Z,2.2
2023-02-17T08:58:33.703Z,2.3
2023-02-17T09:01:00.455Z,2.6
2023-02-17T09:03:27.152Z,2.5
2023-02-17T09:08:20.344Z,2.2
2023-02-17T09:13:13.705Z,2.1
2023-02-17T09:15:40.376Z,2.9
2023-02-17T09:18:07.194Z,2.4
2023-02-17T09:20:33.806Z,1.7
2023-02-17T09:25:27.107Z,2.1
2023-02-17T09:27:53.838Z,2.3
2023-02-17T09:30:19.044Z,2
2023-02-17T09:32:45.726Z,2.5
2023-02-17T09:35:10.949Z,2.6
2023-02-17T09:37:37.636Z,2.6
2023-02-17T09:40:04.452Z,2.4
2023-02-17T09:42:31.013Z,2.3
2023-02-17T09:44:57.691Z,2.3
2023-02-17T09:49:51.059Z,2.3
2023-02-17T09:52:17.737Z,1.8
2023-02-17T09:54:44.487Z,2.8
2023-02-17T09:57:11.123Z,2.1
2023-02-17T09:59:37.823Z,1.8
2023-02-17T10:02:04.488Z,1.7
2023-02-17T10:04:31.209Z,2.1
2023-02-17T10:06:56.457Z,1.9
2023-02-17T10:09:23.073Z,1.7
2023-02-17T10:11:49.748Z,1.7
2023-02-17T10:14:16.477Z,1.8
2023-02-17T10:16:43.160Z,2.2
2023-02-17T10:21:36.490Z,2.5
2023-02-17T10:24:03.236Z,1.8
2023-02-17T10:26:29.878Z,1.9
2023-02-17T10:28:56.569Z,2.1
2023-02-17T10:31:23.253Z,1.8
2023-02-17T10:33:49.907Z,1.8
2023-02-17T10:36:16.671Z,1.8
2023-02-17T10:38:41.811Z,2.1
2023-02-17T10:41:07.086Z,2
2023-02-17T10:43:32.302Z,2
2023-02-17T10:45:58.978Z,1.9
2023-02-17T10:48:25.655Z,1.7
2023-02-17T10:50:52.351Z,1.9
2023-02-17T10:53:19.030Z,1.7
2023-02-17T10:55:45.807Z,1.8
2023-02-17T10:58:12.410Z,1.6
2023-02-17T11:03:05.766Z,2.2
2023-02-17T11:05:32.490Z,1.7
2023-02-17T11:07:59.146Z,1.7
2023-02-17T11:10:25.821Z,1.5
2023-02-17T11:12:52.506Z,1.7
2023-02-17T11:15:17.720Z,1.7
2023-02-17T11:17:44.470Z,1.6
2023-02-17T11:20:11.120Z,1.5
2023-02-17T11:22:37.789Z,1.5
2023-02-17T11:25:04.561Z,1.8
2023-02-17T11:27:31.262Z,1.3
2023-02-17T11:29:57.830Z,1.7
2023-02-17T11:32:24.589Z,1.6
2023-02-17T11:37:17.951Z,1.9
2023-02-17T11:39:44.558Z,1.7
2023-02-17T11:42:11.303Z,1.4
2023-02-17T11:44:37.989Z,1.6
2023-02-17T11:47:04.635Z,1.8
2023-02-17T11:49:29.857Z,1.6
2023-02-17T11:51:56.703Z,1.6
2023-02-17T11:54:21.853Z,1.5
2023-02-17T11:56:48.498Z,1.4
2023-02-17T11:59:13.741Z,1.4
2023-02-17T12:01:40.369Z,1.4
2023-02-17T12:04:07.061Z,1.3
2023-02-17T12:06:33.784Z,1.8
2023-02-17T12:09:00.454Z,1.5
2023-02-17T12:13:53.780Z,1.2
2023-02-17T12:18:47.189Z,1
2023-02-17T12:21:13.868Z,1.5
2023-02-17T12:23:40.531Z,1.1
2023-02-17T12:26:05.780Z,1.4
2023-02-17T12:30:59.150Z,1
2023-02-17T12:33:25.868Z,1.3
2023-02-17T12:35:52.515Z,1.6
2023-02-17T12:38:17.888Z,1
2023-02-17T12:40:44.436Z,1.5
2023-02-17T12:43:11.103Z,1.8
2023-02-17T12:45:37.786Z,1.1
2023-02-17T12:48:04.473Z,1.3
2023-02-17T12:50:31.168Z,1.4
2023-02-17T12:52:57.834Z,1.4
2023-02-17T12:55:23.107Z,1.6
2023-02-17T12:57:48.299Z,1.2
2023-02-17T13:00:14.996Z,0.9
2023-02-17T13:02:41.743Z,1.1
2023-02-17T13:05:08.369Z,1.2
2023-02-17T13:07:35.051Z,0.8
2023-02-17T13:10:01.766Z,1.1
2023-02-17T13:12:28.424Z,1.5
2023-02-17T13:14:55.104Z,1.2
2023-02-17T13:17:21.810Z,1
2023-02-17T13:19:48.485Z,1.4
2023-02-17T13:22:15.153Z,1.3
2023-02-17T13:24:41.842Z,1
2023-02-17T13:27:08.543Z,1.1
2023-02-17T13:29:33.757Z,1.1
2023-02-17T13:32:00.529Z,1.3
2023-02-17T13:34:27.117Z,1.3
2023-02-17T13:36:53.797Z,1.3
2023-02-17T13:39:20.497Z,1.7
2023-02-17T13:41:47.176Z,1.3
2023-02-17T13:44:13.835Z,1.4
2023-02-17T13:46:40.524Z,1.3
2023-02-17T13:49:07.219Z,1.6
2023-02-17T13:51:33.910Z,1.2
2023-02-17T13:54:00.589Z,1.4
2023-02-17T13:56:27.264Z,1.7
2023-02-17T13:58:53.974Z,1.8
2023-02-17T14:01:19.179Z,1.3
2023-02-17T14:03:45.868Z,1.2
2023-02-17T14:06:12.542Z,1.3
2023-02-17T14:08:39.230Z,1.6
2023-02-17T14:11:05.912Z,1.7
2023-02-17T14:13:32.594Z,1.1
2023-02-17T14:15:59.279Z,1.4
2023-02-17T14:18:25.965Z,1.4
2023-02-17T14:20:52.649Z,1.2
2023-02-17T14:23:19.328Z,1.4
2023-02-17T14:25:46.068Z,1.3
2023-02-17T14:28:12.730Z,1.4
2023-02-17T14:30:39.464Z,1.1
2023-02-17T14:33:06.075Z,1.2
2023-02-17T14:35:31.311Z,1.2
2023-02-17T14:37:57.999Z,1.2
2023-02-17T14:40:24.666Z,1.3
2023-02-17T14:42:51.342Z,1.3
2023-02-17T14:45:18.027Z,1.5
2023-02-17T14:50:11.411Z,1.5
2023-02-17T14:52:38.078Z,1.3
2023-02-17T14:57:31.511Z,1.6
2023-02-17T14:59:58.141Z,1.2
2023-02-17T15:04:51.512Z,1.5
2023-02-17T15:07:16.767Z,1
2023-02-17T15:09:41.995Z,1.1
2023-02-17T15:12:08.669Z,1.2
2023-02-17T15:14:35.360Z,1.3
2023-02-17T15:17:02.039Z,1.6
2023-02-17T15:19:28.736Z,1.3
2023-02-17T15:21:55.408Z,1.3
2023-02-17T15:24:22.095Z,1.2
2023-02-17T15:26:48.806Z,1.2
2023-02-17T15:29:15.460Z,1.3
2023-02-17T15:31:42.146Z,1.9
2023-02-17T15:34:08.838Z,1.7
2023-02-17T15:36:35.505Z,1.6
2023-02-17T15:39:02.195Z,1.5
2023-02-17T15:41:27.438Z,1.4
2023-02-17T15:43:54.256Z,1.5
2023-02-17T15:46:19.357Z,1.5
2023-02-17T15:48:46.044Z,1.4
2023-02-17T15:51:12.718Z,1.5
2023-02-17T15:53:39.417Z,1.6
2023-02-17T15:56:06.090Z,1.6
2023-02-17T15:58:32.831Z,1.3
2023-02-17T16:00:59.453Z,1.8
2023-02-17T16:03:26.138Z,1.7
2023-02-17T16:05:52.805Z,2
2023-02-17T16:10:46.212Z,1.5
2023-02-17T16:13:11.565Z,1.5
2023-02-17T16:15:38.168Z,1.5
2023-02-17T16:18:04.815Z,2
2023-02-17T16:20:31.485Z,1.7
2023-02-17T16:22:58.185Z,1.4
2023-02-17T16:25:24.851Z,1.6
2023-02-17T16:30:18.229Z,1.9
2023-02-17T16:35:10.173Z,1.7
2023-02-17T16:37:35.401Z,1.9
2023-02-17T16:40:00.677Z,1.6
2023-02-17T16:42:27.320Z,1.6
2023-02-17T16:44:54.003Z,1.9
2023-02-17T16:47:20.713Z,1.8
2023-02-17T16:49:47.371Z,1.5
2023-02-17T16:52:14.077Z,1.3
2023-02-17T16:57:07.557Z,1.3
2023-02-17T17:02:00.791Z,1.2
2023-02-17T17:04:27.497Z,1.4
2023-02-17T17:06:54.219Z,1.3
2023-02-17T17:09:19.411Z,1.5
2023-02-17T17:11:44.669Z,1.5
2023-02-17T17:14:11.315Z,1.4
2023-02-17T17:16:38.000Z,1.6
2023-02-17T17:19:04.692Z,1.4
2023-02-17T17:21:31.357Z,1.5
2023-02-17T17:26:24.741Z,1.2
2023-02-17T17:28:51.427Z,1.2
2023-02-17T17:31:18.120Z,1.2
2023-02-17T17:33:44.840Z,2.1
2023-02-17T17:36:11.478Z,1.1
2023-02-17T17:38:38.199Z,2.1
2023-02-17T17:41:04.848Z,1.5
2023-02-17T17:45:56.805Z,1.4
2023-02-17T17:48:23.436Z,1.5
2023-02-17T17:50:50.181Z,1.6
2023-02-17T17:53:16.824Z,1.7
2023-02-17T17:55:43.511Z,1.7
2023-02-17T18:00:36.860Z,1.7
2023-02-17T18:03:03.548Z,1.3
2023-02-17T18:05:30.232Z,1.4
2023-02-17T18:07:56.934Z,1.2
2023-02-17T18:10:23.664Z,1.5
2023-02-17T18:12:50.282Z,1.2
2023-02-17T18:15:15.518Z,1.5
2023-02-17T18:17:42.271Z,1.3
2023-02-17T18:20:08.875Z,1.5
2023-02-17T18:22:35.585Z,1.5
2023-02-17T18:25:02.248Z,1.2
2023-02-17T18:27:28.967Z,1.4
2023-02-17T18:29:55.609Z,1.6
2023-02-17T18:32:22.353Z,1.3
2023-02-17T18:34:48.973Z,1.4
2023-02-17T18:37:14.245Z,1.3
2023-02-17T18:42:07.627Z,1.1
2023-02-17T18:44:32.824Z,1.6
2023-02-17T18:46:59.499Z,1.6
2023-02-17T18:49:26.244Z,2
2023-02-17T18:51:52.888Z,1.2
2023-02-17T18:54:19.646Z,1.8
2023-02-17T18:56:46.328Z,1.7
2023-02-17T18:59:12.904Z,1.6
2023-02-17T19:01:39.608Z,1.5
2023-02-17T19:04:06.305Z,1.4
2023-02-17T19:06:31.537Z,1.8
2023-02-17T19:08:56.748Z,1.5
2023-02-17T19:11:23.472Z,1.9
2023-02-17T19:13:50.116Z,1.9
2023-02-17T19:18:43.503Z,1.7
2023-02-17T19:21:10.164Z,1.7
2023-02-17T19:23:36.986Z,2.2
2023-02-17T19:28:30.234Z,2.1
2023-02-17T19:30:56.903Z,2.6
2023-02-17T19:33:23.646Z,2.1
2023-02-17T19:35:50.282Z,2.1
2023-02-17T19:38:16.979Z,2.1
2023-02-17T19:40:42.312Z,2.7
2023-02-17T19:45:34.266Z,2.5
2023-02-17T19:48:00.818Z,3
2023-02-17T19:50:27.500Z,2.8
2023-02-17T19:52:54.213Z,2.9
2023-02-17T19:55:20.887Z,3
2023-02-17T19:57:47.705Z,2.5
2023-02-17T20:00:14.245Z,2.7
2023-02-17T20:02:40.930Z,3.4
2023-02-17T20:05:07.696Z,2.8
2023-02-17T20:07:34.283Z,2.5
2023-02-17T20:10:00.981Z,2.5
2023-02-17T20:12:26.296Z,2.4
2023-02-17T20:14:51.493Z,2.1
2023-02-17T20:17:18.203Z,2.2
2023-02-17T20:19:44.927Z,2.4
2023-02-17T20:22:11.583Z,2
2023-02-17T20:24:38.286Z,2.1
2023-02-17T20:27:04.882Z,1.7
2023-02-17T20:29:31.602Z,2.1
2023-02-17T20:31:58.238Z,2
2023-02-17T20:34:24.937Z,1.6
2023-02-17T20:36:51.653Z,1.6
2023-02-17T20:41:45.027Z,1.4
2023-02-17T20:44:11.674Z,1.5
2023-02-17T20:46:36.890Z,1.2
2023-02-17T20:49:03.632Z,1
2023-02-17T20:53:56.934Z,1.3
2023-02-17T20:56:23.658Z,1.3
2023-02-17T20:58:50.308Z,1.2
2023-02-17T21:01:16.988Z,1.2
2023-02-17T21:03:42.274Z,0.8
2023-02-17T21:06:08.946Z,1
2023-02-17T21:08:35.656Z,1.3
2023-02-17T21:11:00.824Z,1
2023-02-17T21:13:27.511Z,1.4
2023-02-17T21:15:54.192Z,1
2023-02-17T21:18:20.942Z,0.8
2023-02-17T21:20:47.571Z,1
2023-02-17T21:23:14.257Z,0.8
2023-02-17T21:28:07.637Z,1
2023-02-17T21:30:34.309Z,1
2023-02-17T21:33:00.982Z,0.7
2023-02-17T21:35:27.685Z,0.9
2023-02-17T21:37:54.377Z,0.9
2023-02-17T21:40:21.109Z,0.7
2023-02-17T21:42:47.772Z,0.7
2023-02-17T21:45:12.992Z,0.8
2023-02-17T21:47:39.664Z,0.7
2023-02-17T21:50:06.300Z,0.9
2023-02-17T21:52:32.999Z,0.8
2023-02-17T21:54:59.692Z,0.7
2023-02-17T21:57:24.939Z,0.7
2023-02-17T21:59:50.147Z,0.5
2023-02-17T22:04:43.572Z,0.7
2023-02-17T22:07:10.212Z,0.6
2023-02-17T22:12:03.576Z,0.8
2023-02-17T22:14:30.265Z,0.9
2023-02-17T22:24:17.113Z,0.8
2023-02-17T22:26:43.695Z,0.9
2023-02-17T22:29:10.467Z,0.9
2023-02-17T22:31:35.764Z,1.2
2023-02-17T22:34:02.415Z,1.1
2023-02-17T22:36:29.035Z,1
2023-02-17T22:41:20.960Z,1.1
2023-02-17T22:43:47.576Z,1.1
2023-02-17T22:46:12.843Z,1.1
2023-02-17T22:48:38.123Z,1.4
2023-02-17T22:53:31.410Z,1.5
2023-02-17T22:55:58.112Z,0.9
2023-02-17T22:58:24.784Z,1.1
2023-02-17T23:03:18.148Z,0.8
2023-02-17T23:05:44.897Z,1.1
2023-02-17T23:08:11.564Z,1
2023-02-17T23:10:38.199Z,0.8
2023-02-17T23:13:04.893Z,0.9
2023-02-17T23:15:31.568Z,0.7
2023-02-17T23:17:58.256Z,0.8
2023-02-17T23:20:23.481Z,1.1
2023-02-17T23:22:50.157Z,0.8
2023-02-17T23:25:16.833Z,0.9
2023-02-17T23:27:43.535Z,0.8
2023-02-17T23:30:10.215Z,1.3
2023-02-17T23:32:36.910Z,1
2023-02-17T23:35:03.586Z,1.2
2023-02-17T23:37:30.271Z,1
2023-02-17T23:39:56.993Z,1
2023-02-17T23:42:23.683Z,1.7
2023-02-17T23:44:48.890Z,1.1
2023-02-17T23:47:15.709Z,1.3
2023-02-17T23:49:42.274Z,1.2
2023-02-17T23:54:34.216Z,1.4
2023-02-17T23:57:00.850Z,1.3
